Robert G. Stone, Jr. — WDD4596 — position and weather

sailwx.info

Track history (hours):
 
Tides and Currents Weather Stations Pressure Air Temp Water Temp Dewpoint Dewpoint Depression Visibility Wind Speed Wind Dir Waves Ship Positions

Robert G. Stone, Jr.

Owner: Kirby Inland Marine, LP, Houston, TX. More information available from US FCC via Universal Licensing System and Coast Guard Vessel Documentation Center.

Last reported at 2016-Apr-30 06:33 UTC. Time now 2016-Apr-30 09:02 UTC.
Position N 29°56' W 093°03'.

Length 27 m; draft 3.1 m.

Type: Towing. MMSI: 367146780.

Date/timePositionNaut miles runAvg speedWind from/ knotsBaromVisibWave heightAir tempDewpointWater temp
2016-Apr-30 06:33N 29°56' W 093°03'5 5.1
2016-Apr-30 05:32N 29°56' W 093°09'5 5.4
2016-Apr-30 04:32N 29°60' W 093°13'5 4.7
2016-Apr-30 03:33N 30°04' W 093°16'3 2.9
2016-Apr-30 02:33N 30°06' W 093°18'2 1.8
2016-Apr-30 01:30N 30°05' W 093°20'3 3.3
2016-Apr-30 00:33N 30°04' W 093°23'6 6.0
2016-Apr-29 23:30N 30°04' W 093°31'7 6.4
2016-Apr-29 22:28N 30°04' W 093°38'6 6.1
2016-Apr-29 21:33N 30°02' W 093°44'9 6.3
2016-Apr-29 20:05N 29°56' W 093°53'12 6.1
2016-Apr-29 18:08N 29°47' W 094°02'42 4.2
2016-Apr-29 08:12N 29°25' W 094°43'0 0.0
2016-Apr-29 06:33N 29°25' W 094°43'8 0.3
2016-Apr-28 02:25N 29°20' W 094°50'8 7.5
2016-Apr-28 01:18N 29°29' W 094°51'7 9.2
2016-Apr-28 00:33N 29°34' W 094°56'9 8.6
2016-Apr-27 23:33N 29°42' W 094°60'6 3.1
2016-Apr-27 21:33N 29°47' W 095°05'1 1.0
2016-Apr-27 20:30N 29°46' W 095°05'1 1.0
2016-Apr-27 19:33N 29°46' W 095°06'1 0.6
2016-Apr-27 18:33N 29°46' W 095°06'1 0.5
2016-Apr-27 17:20N 29°46' W 095°06'1 0.9
2016-Apr-27 16:28N 29°46' W 095°06'1 0.9
2016-Apr-27 15:33N 29°46' W 095°05'1 1.4
2016-Apr-27 14:33N 29°47' W 095°04'0 0.0
2016-Apr-27 13:31N 29°47' W 095°04'0 0.0
2016-Apr-27 12:32N 29°47' W 095°04'0 0.0
2016-Apr-27 11:19N 29°47' W 095°04'0 0.0
2016-Apr-27 10:18N 29°47' W 095°04'0 0.0
2016-Apr-27 09:33N 29°47' W 095°04'0 0.0
2016-Apr-27 08:33N 29°47' W 095°04'0 0.0
2016-Apr-27 07:33N 29°47' W 095°04'0 0.0
2016-Apr-27 06:31N 29°47' W 095°04'0 0.0
2016-Apr-27 05:33N 29°47' W 095°04'0 0.0
2016-Apr-27 04:28N 29°47' W 095°04'0 0.1
2016-Apr-27 03:30N 29°47' W 095°04'0 0.0
2016-Apr-27 02:29N 29°47' W 095°04'0 0.0
2016-Apr-27 01:30N 29°47' W 095°04'0 0.2
2016-Apr-27 00:09N 29°47' W 095°04'0 0.0
2016-Apr-26 22:08N 29°47' W 095°05'0 0.8
2016-Apr-26 21:32N 29°46' W 095°05'5 5.1
2016-Apr-26 20:33N 29°42' W 095°01'6 5.7
2016-Apr-26 19:33N 29°38' W 094°58'6 5.9
2016-Apr-26 18:33N 29°33' W 094°54'7 6.7
2016-Apr-26 17:30N 29°26' W 094°50'5 5.0
2016-Apr-26 16:32N 29°23' W 094°46'  
2016-Apr-24 02:12N 29°22' W 094°48'11 0.6
2016-Apr-23 07:07N 29°16' W 094°59'6 6.1
2016-Apr-23 06:08N 29°18' W 094°53'4 6.4
2016-Apr-23 05:33N 29°21' W 094°49'4 1.2
2016-Apr-23 02:09N 29°24' W 094°46'3 4.3
2016-Apr-23 01:33N 29°22' W 094°48'7 6.6
2016-Apr-23 00:31N 29°29' W 094°51'6 6.3
2016-Apr-22 23:33N 29°34' W 094°55'6 6.1
2016-Apr-22 22:33N 29°39' W 094°58'6 5.9
2016-Apr-22 21:33N 29°44' W 095°02'3 2.8
2016-Apr-22 20:19N 29°46' W 095°06'0 0.3
2016-Apr-22 19:31N 29°46' W 095°05'1 0.1
2016-Apr-22 14:33N 29°46' W 095°05'0 0.0
2016-Apr-22 13:33N 29°46' W 095°05'0 0.0
2016-Apr-22 12:33N 29°46' W 095°05'3 2.7
2016-Apr-22 11:33N 29°44' W 095°03'9 8.7
2016-Apr-22 10:33N 29°37' W 094°57'1110.5
2016-Apr-22 09:31N 29°27' W 094°51'6 6.2
2016-Apr-22 08:33N 29°24' W 094°45'2 2.2
2016-Apr-22 07:33N 29°25' W 094°43'4 3.8
2016-Apr-22 06:33N 29°28' W 094°40'3 2.8
2016-Apr-22 05:22N 29°29' W 094°36'45 5.0
2016-Apr-21 20:28N 29°54' W 093°54'7 8.1
2016-Apr-21 19:33N 29°59' W 093°48'2 2.1
2016-Apr-21 18:31N 30°01' W 093°46'3 3.1
2016-Apr-21 17:33N 30°03' W 093°44'7 7.0
2016-Apr-21 16:34N 30°04' W 093°35'7 6.6
2016-Apr-21 15:34N 30°04' W 093°28'6 6.1
2016-Apr-21 14:34N 30°04' W 093°21'3 2.9
2016-Apr-21 13:33N 30°06' W 093°19'2 1.6
2016-Apr-21 12:34N 30°05' W 093°17'1 1.5
2016-Apr-21 11:34N 30°04' W 093°16'3 2.9
2016-Apr-21 10:34N 30°02' W 093°14'2 2.2
2016-Apr-21 09:34N 29°60' W 093°13'0 0.0
2016-Apr-21 08:34N 29°60' W 093°13'0 0.0
2016-Apr-21 07:34N 29°60' W 093°13'0 0.0
2016-Apr-21 06:34N 29°60' W 093°13'0 0.0
2016-Apr-21 05:34N 29°60' W 093°13'0 0.0
2016-Apr-21 04:34N 29°60' W 093°13'0 0.0
2016-Apr-21 03:34N 29°60' W 093°13'1 1.4
2016-Apr-21 02:34N 29°59' W 093°12'6 5.9
2016-Apr-21 01:34N 29°56' W 093°06'7 6.5
2016-Apr-21 00:34N 29°56' W 092°58'6 6.3
2016-Apr-20 23:33N 29°57' W 092°51'5 4.2
2016-Apr-20 22:16N 29°58' W 092°45'  
Track history (hours):
 
Tides and Currents Weather Stations Pressure Air Temp Water Temp Dewpoint Dewpoint Depression Visibility Wind Speed Wind Dir Waves Ship Positions

Robert G. Stone, Jr.

Owner: Kirby Inland Marine, LP, Houston, TX. More information available from US FCC via Universal Licensing System and Coast Guard Vessel Documentation Center.

Last reported at 2016-Apr-30 06:33 UTC. Time now 2016-Apr-30 09:02 UTC.
Position N 29°56' W 093°03'.

Length 27 m; draft 3.1 m.

Type: Towing. MMSI: 367146780.

Date/timePositionNaut miles runAvg speedWind from/ knotsBaromVisibWave heightAir tempDewpointWater temp
2016-Apr-30 06:33N 29°56' W 093°03'5 5.1
2016-Apr-30 05:32N 29°56' W 093°09'5 5.4
2016-Apr-30 04:32N 29°60' W 093°13'5 4.7
2016-Apr-30 03:33N 30°04' W 093°16'3 2.9
2016-Apr-30 02:33N 30°06' W 093°18'2 1.8
2016-Apr-30 01:30N 30°05' W 093°20'3 3.3
2016-Apr-30 00:33N 30°04' W 093°23'6 6.0
2016-Apr-29 23:30N 30°04' W 093°31'7 6.4
2016-Apr-29 22:28N 30°04' W 093°38'6 6.1
2016-Apr-29 21:33N 30°02' W 093°44'9 6.3
2016-Apr-29 20:05N 29°56' W 093°53'12 6.1
2016-Apr-29 18:08N 29°47' W 094°02'42 4.2
2016-Apr-29 08:12N 29°25' W 094°43'0 0.0
2016-Apr-29 06:33N 29°25' W 094°43'8 0.3
2016-Apr-28 02:25N 29°20' W 094°50'8 7.5
2016-Apr-28 01:18N 29°29' W 094°51'7 9.2
2016-Apr-28 00:33N 29°34' W 094°56'9 8.6
2016-Apr-27 23:33N 29°42' W 094°60'6 3.1
2016-Apr-27 21:33N 29°47' W 095°05'1 1.0
2016-Apr-27 20:30N 29°46' W 095°05'1 1.0
2016-Apr-27 19:33N 29°46' W 095°06'1 0.6
2016-Apr-27 18:33N 29°46' W 095°06'1 0.5
2016-Apr-27 17:20N 29°46' W 095°06'1 0.9
2016-Apr-27 16:28N 29°46' W 095°06'1 0.9
2016-Apr-27 15:33N 29°46' W 095°05'1 1.4
2016-Apr-27 14:33N 29°47' W 095°04'0 0.0
2016-Apr-27 13:31N 29°47' W 095°04'0 0.0
2016-Apr-27 12:32N 29°47' W 095°04'0 0.0
2016-Apr-27 11:19N 29°47' W 095°04'0 0.0
2016-Apr-27 10:18N 29°47' W 095°04'0 0.0
2016-Apr-27 09:33N 29°47' W 095°04'0 0.0
2016-Apr-27 08:33N 29°47' W 095°04'0 0.0
2016-Apr-27 07:33N 29°47' W 095°04'0 0.0
2016-Apr-27 06:31N 29°47' W 095°04'0 0.0
2016-Apr-27 05:33N 29°47' W 095°04'0 0.0
2016-Apr-27 04:28N 29°47' W 095°04'0 0.1
2016-Apr-27 03:30N 29°47' W 095°04'0 0.0
2016-Apr-27 02:29N 29°47' W 095°04'0 0.0
2016-Apr-27 01:30N 29°47' W 095°04'0 0.2
2016-Apr-27 00:09N 29°47' W 095°04'0 0.0
2016-Apr-26 22:08N 29°47' W 095°05'0 0.8
2016-Apr-26 21:32N 29°46' W 095°05'5 5.1
2016-Apr-26 20:33N 29°42' W 095°01'6 5.7
2016-Apr-26 19:33N 29°38' W 094°58'6 5.9
2016-Apr-26 18:33N 29°33' W 094°54'7 6.7
2016-Apr-26 17:30N 29°26' W 094°50'5 5.0
2016-Apr-26 16:32N 29°23' W 094°46'  
2016-Apr-24 02:12N 29°22' W 094°48'11 0.6
2016-Apr-23 07:07N 29°16' W 094°59'6 6.1
2016-Apr-23 06:08N 29°18' W 094°53'4 6.4
2016-Apr-23 05:33N 29°21' W 094°49'4 1.2
2016-Apr-23 02:09N 29°24' W 094°46'3 4.3
2016-Apr-23 01:33N 29°22' W 094°48'7 6.6
2016-Apr-23 00:31N 29°29' W 094°51'6 6.3
2016-Apr-22 23:33N 29°34' W 094°55'6 6.1
2016-Apr-22 22:33N 29°39' W 094°58'6 5.9
2016-Apr-22 21:33N 29°44' W 095°02'3 2.8
2016-Apr-22 20:19N 29°46' W 095°06'0 0.3
2016-Apr-22 19:31N 29°46' W 095°05'1 0.1
2016-Apr-22 14:33N 29°46' W 095°05'0 0.0
2016-Apr-22 13:33N 29°46' W 095°05'0 0.0
2016-Apr-22 12:33N 29°46' W 095°05'3 2.7
2016-Apr-22 11:33N 29°44' W 095°03'9 8.7
2016-Apr-22 10:33N 29°37' W 094°57'1110.5
2016-Apr-22 09:31N 29°27' W 094°51'6 6.2
2016-Apr-22 08:33N 29°24' W 094°45'2 2.2
2016-Apr-22 07:33N 29°25' W 094°43'4 3.8
2016-Apr-22 06:33N 29°28' W 094°40'3 2.8
2016-Apr-22 05:22N 29°29' W 094°36'45 5.0
2016-Apr-21 20:28N 29°54' W 093°54'7 8.1
2016-Apr-21 19:33N 29°59' W 093°48'2 2.1
2016-Apr-21 18:31N 30°01' W 093°46'3 3.1
2016-Apr-21 17:33N 30°03' W 093°44'7 7.0
2016-Apr-21 16:34N 30°04' W 093°35'7 6.6
2016-Apr-21 15:34N 30°04' W 093°28'6 6.1
2016-Apr-21 14:34N 30°04' W 093°21'3 2.9
2016-Apr-21 13:33N 30°06' W 093°19'2 1.6
2016-Apr-21 12:34N 30°05' W 093°17'1 1.5
2016-Apr-21 11:34N 30°04' W 093°16'3 2.9
2016-Apr-21 10:34N 30°02' W 093°14'2 2.2
2016-Apr-21 09:34N 29°60' W 093°13'0 0.0
2016-Apr-21 08:34N 29°60' W 093°13'0 0.0
2016-Apr-21 07:34N 29°60' W 093°13'0 0.0
2016-Apr-21 06:34N 29°60' W 093°13'0 0.0
2016-Apr-21 05:34N 29°60' W 093°13'0 0.0
2016-Apr-21 04:34N 29°60' W 093°13'0 0.0
2016-Apr-21 03:34N 29°60' W 093°13'1 1.4
2016-Apr-21 02:34N 29°59' W 093°12'6 5.9
2016-Apr-21 01:34N 29°56' W 093°06'7 6.5
2016-Apr-21 00:34N 29°56' W 092°58'6 6.3
2016-Apr-20 23:33N 29°57' W 092°51'5 4.2
2016-Apr-20 22:16N 29°58' W 092°45'  

Dump ship's entire track history